createdAt,value
2022-08-08T00:00:50.462Z,99.90
2022-08-08T00:02:30.385Z,99.90
2022-08-08T00:05:01.103Z,99.90
2022-08-08T00:07:44.300Z,99.90
2022-08-08T00:10:41.783Z,99.90
2022-08-08T00:14:16.861Z,99.90
2022-08-08T00:17:02.928Z,99.90
2022-08-08T00:19:35.238Z,99.90
2022-08-08T00:22:06.176Z,99.90
2022-08-08T00:24:41.396Z,99.90
2022-08-08T00:27:09.974Z,99.90
2022-08-08T00:29:50.241Z,99.90
2022-08-08T00:32:38.390Z,99.90
2022-08-08T00:35:34.298Z,99.90
2022-08-08T00:38:31.282Z,99.90
2022-08-08T00:41:54.975Z,99.90
2022-08-08T00:44:32.577Z,99.90
2022-08-08T00:47:23.511Z,99.90
2022-08-08T00:50:04.075Z,99.90
2022-08-08T00:53:03.535Z,99.90
2022-08-08T00:55:54.975Z,99.90
2022-08-08T00:58:54.164Z,99.90
2022-08-08T01:01:40.723Z,99.90
2022-08-08T01:04:30.880Z,99.90
2022-08-08T01:07:23.639Z,99.90
2022-08-08T01:10:25.725Z,99.90
2022-08-08T01:13:10.604Z,99.90
2022-08-08T01:15:54.183Z,99.90
2022-08-08T01:18:52.885Z,99.90
2022-08-08T01:22:11.740Z,99.90
2022-08-08T01:24:54.185Z,99.90
2022-08-08T01:27:44.099Z,99.90
2022-08-08T01:30:39.288Z,99.90
2022-08-08T01:33:33.664Z,99.90
2022-08-08T01:36:18.845Z,99.90
2022-08-08T01:39:24.176Z,99.90
2022-08-08T01:42:00.112Z,99.90
2022-08-08T01:44:43.090Z,99.90
2022-08-08T01:48:14.473Z,99.90
2022-08-08T01:50:59.684Z,99.90
2022-08-08T01:55:17.413Z,99.90
2022-08-08T01:56:38.648Z,99.90
2022-08-08T02:00:00.779Z,99.90
2022-08-08T02:02:34.463Z,99.90
2022-08-08T02:05:13.056Z,99.90
2022-08-08T02:07:55.342Z,99.90
2022-08-08T02:10:55.899Z,99.90
2022-08-08T02:13:54.525Z,99.90
2022-08-08T02:16:42.793Z,99.90
2022-08-08T02:19:41.910Z,99.90
2022-08-08T02:22:32.133Z,99.90
2022-08-08T02:25:23.115Z,99.90
2022-08-08T02:28:02.240Z,99.90
2022-08-08T02:30:38.946Z,99.90
2022-08-08T02:34:00.127Z,99.90
2022-08-08T02:37:52.726Z,99.90
2022-08-08T02:40:09.322Z,99.90
2022-08-08T02:44:38.105Z,99.90
2022-08-08T02:46:02.886Z,99.90
2022-08-08T02:48:42.656Z,99.90
2022-08-08T02:51:58.713Z,99.90
2022-08-08T02:54:45.391Z,99.90
2022-08-08T02:57:17.409Z,99.90
2022-08-08T03:00:26.890Z,99.90
2022-08-08T03:05:00.631Z,99.90
2022-08-08T03:06:34.986Z,99.90
2022-08-08T03:09:28.754Z,99.90
2022-08-08T03:12:36.840Z,99.90
2022-08-08T03:16:11.738Z,99.90
2022-08-08T03:18:52.267Z,99.90
2022-08-08T03:21:19.120Z,99.90
2022-08-08T03:23:59.466Z,99.90
2022-08-08T03:26:31.010Z,99.90
2022-08-08T03:29:03.443Z,99.90
2022-08-08T03:32:06.534Z,99.90
2022-08-08T03:34:35.289Z,99.90
2022-08-08T03:37:20.131Z,99.90
2022-08-08T03:40:02.410Z,99.90
2022-08-08T03:42:31.977Z,99.90
2022-08-08T03:44:59.420Z,99.90
2022-08-08T03:47:27.825Z,99.90
2022-08-08T03:50:20.078Z,99.90
2022-08-08T03:52:51.791Z,99.90
2022-08-08T03:55:55.177Z,99.90
2022-08-08T03:58:30.244Z,99.90
2022-08-08T04:01:20.472Z,99.90
2022-08-08T04:03:57.305Z,99.90
2022-08-08T04:06:29.254Z,99.90
2022-08-08T04:08:58.646Z,99.90
2022-08-08T04:11:57.810Z,99.90
2022-08-08T04:14:34.594Z,99.90
2022-08-08T04:17:04.546Z,99.90
2022-08-08T04:19:36.774Z,99.90
2022-08-08T04:22:04.550Z,99.90
2022-08-08T04:24:31.445Z,99.90
2022-08-08T04:26:59.401Z,99.90
2022-08-08T04:29:27.358Z,99.90
2022-08-08T04:31:58.591Z,99.90
2022-08-08T04:34:32.177Z,99.90
2022-08-08T04:37:10.878Z,99.90
2022-08-08T04:40:03.138Z,99.90
2022-08-08T04:42:27.174Z,99.90
2022-08-08T04:44:58.051Z,99.90
2022-08-08T04:47:26.076Z,99.90
2022-08-08T04:50:00.734Z,99.90
2022-08-08T04:52:34.039Z,99.90
2022-08-08T04:55:02.377Z,99.90
2022-08-08T04:57:31.777Z,99.90
2022-08-08T05:00:02.271Z,99.90
2022-08-08T05:02:30.913Z,99.90
2022-08-08T05:04:59.934Z,99.90
2022-08-08T05:07:37.702Z,99.90
2022-08-08T05:10:12.714Z,99.90
2022-08-08T05:12:53.402Z,99.90
2022-08-08T05:15:31.461Z,99.90
2022-08-08T05:18:15.425Z,99.90
2022-08-08T05:20:50.350Z,99.90
2022-08-08T05:23:19.566Z,99.90
2022-08-08T05:25:48.973Z,99.90
2022-08-08T05:28:48.300Z,99.90
2022-08-08T05:31:19.126Z,99.90
2022-08-08T05:33:50.949Z,99.90
2022-08-08T05:36:25.596Z,99.90
2022-08-08T05:38:55.384Z,99.90
2022-08-08T05:41:25.917Z,99.90
2022-08-08T05:44:09.452Z,99.90
2022-08-08T05:46:36.911Z,99.90
2022-08-08T05:49:10.265Z,99.90
2022-08-08T05:51:48.940Z,99.90
2022-08-08T05:54:27.507Z,99.90
2022-08-08T05:57:05.898Z,99.90
2022-08-08T05:59:53.610Z,99.90
2022-08-08T06:02:43.747Z,99.90
2022-08-08T06:05:33.478Z,99.90
2022-08-08T06:08:02.943Z,99.90
2022-08-08T06:10:38.482Z,99.90
2022-08-08T06:13:07.417Z,99.90
2022-08-08T06:15:49.909Z,99.90
2022-08-08T06:18:22.229Z,99.90
2022-08-08T06:20:50.308Z,99.90
2022-08-08T06:23:26.296Z,99.90
2022-08-08T06:26:38.960Z,99.90
2022-08-08T06:29:26.681Z,99.90
2022-08-08T06:32:10.361Z,99.90
2022-08-08T06:34:52.538Z,99.90
2022-08-08T06:37:37.515Z,99.90
2022-08-08T06:40:07.244Z,99.90
2022-08-08T06:42:39.928Z,99.90
2022-08-08T06:45:08.675Z,99.90
2022-08-08T06:47:52.454Z,99.90
2022-08-08T06:50:31.487Z,99.90
2022-08-08T06:53:09.742Z,99.90
2022-08-08T06:55:42.201Z,99.90
2022-08-08T06:58:10.321Z,99.90
2022-08-08T07:00:43.072Z,99.90
2022-08-08T07:03:51.598Z,99.90
2022-08-08T07:06:04.140Z,99.90
2022-08-08T07:08:37.487Z,99.90
2022-08-08T07:11:05.319Z,99.90
2022-08-08T07:14:00.576Z,99.90
2022-08-08T07:16:50.995Z,99.90
2022-08-08T07:19:46.322Z,99.90
2022-08-08T07:22:19.173Z,99.90
2022-08-08T07:24:57.593Z,99.90
2022-08-08T07:27:35.045Z,99.90
2022-08-08T07:30:19.721Z,99.90
2022-08-08T07:32:52.345Z,99.90
2022-08-08T07:35:19.301Z,99.90
2022-08-08T07:38:04.404Z,99.90
2022-08-08T07:40:34.248Z,99.90
2022-08-08T07:43:02.741Z,99.90
2022-08-08T07:45:34.857Z,99.90
2022-08-08T07:48:18.748Z,99.90
2022-08-08T07:50:46.907Z,99.90
2022-08-08T07:53:52.112Z,99.90
2022-08-08T07:56:07.268Z,99.90
2022-08-08T07:58:43.047Z,99.90
2022-08-08T08:01:16.153Z,99.90
2022-08-08T08:03:59.486Z,99.90
2022-08-08T08:06:27.374Z,99.90
2022-08-08T08:09:06.947Z,99.90
2022-08-08T08:11:51.237Z,99.90
2022-08-08T08:14:24.957Z,99.90
2022-08-08T08:16:52.243Z,99.90
2022-08-08T08:19:19.662Z,99.90
2022-08-08T08:21:57.249Z,99.90
2022-08-08T08:24:30.935Z,99.90
2022-08-08T08:27:02.726Z,99.90
2022-08-08T08:29:31.087Z,99.90
2022-08-08T08:31:59.266Z,99.90
2022-08-08T08:34:32.242Z,99.90
2022-08-08T08:37:03.275Z,99.90
2022-08-08T08:39:39.236Z,99.90
2022-08-08T08:42:29.322Z,99.90
2022-08-08T08:45:20.911Z,99.90
2022-08-08T08:47:53.321Z,99.90
2022-08-08T08:50:32.559Z,99.90
2022-08-08T08:53:27.899Z,99.90
2022-08-08T08:56:01.855Z,99.90
2022-08-08T08:58:38.011Z,99.90
2022-08-08T09:01:10.312Z,99.90
2022-08-08T09:03:46.812Z,99.90
2022-08-08T09:06:26.919Z,99.90
2022-08-08T09:09:26.126Z,99.90
2022-08-08T09:12:06.088Z,99.90
2022-08-08T09:14:35.634Z,99.90
2022-08-08T09:17:15.686Z,99.90
2022-08-08T09:22:00.703Z,99.90
2022-08-08T09:22:35.141Z,99.90
2022-08-08T09:25:03.985Z,99.90
2022-08-08T09:27:57.009Z,99.90
2022-08-08T09:30:21.976Z,99.90
2022-08-08T09:33:12.340Z,99.90
2022-08-08T09:35:49.751Z,99.90
2022-08-08T09:38:54.222Z,99.90
2022-08-08T09:42:14.140Z,99.90
2022-08-08T09:44:36.614Z,99.90
2022-08-08T09:47:26.490Z,99.90
2022-08-08T09:50:04.655Z,99.90
2022-08-08T09:52:57.665Z,99.90
2022-08-08T09:56:02.818Z,99.90
2022-08-08T09:58:20.197Z,99.90
2022-08-08T10:00:56.938Z,99.90
2022-08-08T10:03:24.582Z,99.90
2022-08-08T10:05:51.399Z,99.90
2022-08-08T10:08:18.276Z,99.90
2022-08-08T10:10:51.201Z,99.90
2022-08-08T10:13:26.191Z,99.90
2022-08-08T10:16:02.013Z,99.90
2022-08-08T10:18:35.242Z,99.90
2022-08-08T10:21:24.982Z,99.90
2022-08-08T10:23:58.080Z,99.90
2022-08-08T10:26:56.674Z,99.90
2022-08-08T10:29:22.970Z,99.90
2022-08-08T10:32:09.123Z,99.90
2022-08-08T10:34:38.091Z,99.90
2022-08-08T10:37:05.683Z,99.90
2022-08-08T10:39:53.588Z,99.90
2022-08-08T10:42:27.363Z,99.90
2022-08-08T10:45:08.190Z,99.90
2022-08-08T10:47:43.656Z,99.90
2022-08-08T10:50:15.635Z,99.90
2022-08-08T10:52:43.326Z,99.90
2022-08-08T10:55:15.667Z,99.90
2022-08-08T10:58:05.734Z,99.90
2022-08-08T11:00:36.651Z,99.90
2022-08-08T11:03:17.095Z,99.90
2022-08-08T11:06:00.900Z,99.90
2022-08-08T11:08:42.059Z,99.90
2022-08-08T11:11:59.601Z,99.90
2022-08-08T11:14:01.197Z,99.90
2022-08-08T11:16:32.453Z,99.90
2022-08-08T11:19:04.802Z,99.90
2022-08-08T11:21:41.046Z,99.90
2022-08-08T11:24:10.620Z,99.90
2022-08-08T11:26:56.958Z,99.90
2022-08-08T11:29:41.967Z,99.90
2022-08-08T11:32:13.228Z,99.90
2022-08-08T11:35:05.735Z,99.90
2022-08-08T11:38:37.126Z,99.90
2022-08-08T11:40:16.299Z,99.90
2022-08-08T11:42:50.321Z,99.90
2022-08-08T11:45:18.384Z,99.90
2022-08-08T11:48:04.440Z,99.90
2022-08-08T11:50:33.729Z,99.90
2022-08-08T11:53:06.239Z,99.90
2022-08-08T11:55:36.327Z,99.90
2022-08-08T11:58:14.770Z,99.90
2022-08-08T12:00:53.819Z,99.90
2022-08-08T12:03:20.931Z,99.90
2022-08-08T12:05:48.741Z,99.90
2022-08-08T12:08:17.203Z,99.90
2022-08-08T12:10:52.892Z,99.90
2022-08-08T12:13:33.361Z,99.90
2022-08-08T12:16:12.762Z,99.90
2022-08-08T12:18:47.194Z,99.90
2022-08-08T12:22:00.581Z,99.90
2022-08-08T12:24:28.078Z,99.90
2022-08-08T12:26:58.474Z,99.90
2022-08-08T12:29:42.266Z,99.90
2022-08-08T12:32:20.291Z,99.40
2022-08-08T12:35:13.507Z,99.50
2022-08-08T12:38:01.010Z,99.10
2022-08-08T12:40:37.553Z,98.30
2022-08-08T12:43:46.407Z,96.80
2022-08-08T12:46:26.774Z,96.20
2022-08-08T12:49:22.256Z,95.50
2022-08-08T12:51:50.229Z,94.70
2022-08-08T12:54:28.869Z,93.80
2022-08-08T12:56:56.083Z,93.70
2022-08-08T12:59:45.268Z,93.80
2022-08-08T13:02:28.532Z,93.50
2022-08-08T13:05:01.137Z,93.40
2022-08-08T13:08:04.391Z,93.50
2022-08-08T13:10:22.132Z,93.50
2022-08-08T13:13:01.303Z,93.70
2022-08-08T13:15:33.655Z,93.80
2022-08-08T13:18:10.719Z,93.90
2022-08-08T13:20:45.501Z,93.10
2022-08-08T13:23:36.939Z,93.40
2022-08-08T13:26:14.816Z,93.60
2022-08-08T13:28:45.463Z,94.00
2022-08-08T13:31:16.510Z,94.20
2022-08-08T13:33:46.237Z,94.00
2022-08-08T13:36:14.495Z,94.10
2022-08-08T13:38:44.380Z,94.30
2022-08-08T13:41:16.347Z,94.30
2022-08-08T13:43:49.814Z,94.20
2022-08-08T13:46:26.711Z,94.00
2022-08-08T13:49:11.179Z,93.80
2022-08-08T13:51:41.792Z,94.10
2022-08-08T13:54:21.308Z,94.10
2022-08-08T13:56:59.990Z,94.10
2022-08-08T14:00:04.783Z,93.80
2022-08-08T14:02:33.555Z,93.80
2022-08-08T14:05:09.015Z,94.40
2022-08-08T14:07:52.293Z,95.20
2022-08-08T14:10:33.316Z,96.00
2022-08-08T14:13:09.854Z,96.60
2022-08-08T14:15:50.280Z,97.30
2022-08-08T14:18:35.932Z,97.70
2022-08-08T14:21:14.892Z,98.10
2022-08-08T14:24:03.815Z,98.50
2022-08-08T14:26:31.757Z,99.10
2022-08-08T14:29:01.459Z,99.70
2022-08-08T14:32:05.694Z,99.90
2022-08-08T14:34:23.340Z,99.90
2022-08-08T14:36:56.588Z,99.90
2022-08-08T14:39:24.749Z,99.90
2022-08-08T14:41:59.551Z,99.90
2022-08-08T14:44:33.484Z,99.90
2022-08-08T14:47:16.698Z,99.90
2022-08-08T14:50:02.559Z,99.90
2022-08-08T14:52:46.455Z,99.90
2022-08-08T14:55:14.454Z,99.90
2022-08-08T14:58:06.433Z,99.90
2022-08-08T15:00:34.180Z,99.90
2022-08-08T15:03:16.158Z,99.90
2022-08-08T15:05:53.532Z,99.90
2022-08-08T15:08:35.207Z,99.90
2022-08-08T15:11:09.306Z,99.90
2022-08-08T15:14:01.936Z,99.90
2022-08-08T15:16:34.642Z,99.90
2022-08-08T15:19:02.551Z,99.90
2022-08-08T15:21:30.304Z,99.90
2022-08-08T15:23:57.765Z,99.90
2022-08-08T15:26:25.747Z,99.90
2022-08-08T15:28:55.740Z,99.90
2022-08-08T15:31:55.633Z,99.90
2022-08-08T15:34:28.889Z,99.90
2022-08-08T15:36:58.141Z,99.90
2022-08-08T15:39:27.580Z,99.90
2022-08-08T15:41:58.138Z,99.90
2022-08-08T15:44:27.360Z,99.90
2022-08-08T15:46:55.296Z,99.90
2022-08-08T15:49:24.376Z,99.90
2022-08-08T15:51:56.395Z,99.90
2022-08-08T15:54:38.158Z,99.90
2022-08-08T15:57:07.786Z,99.90
2022-08-08T16:00:05.837Z,99.90
2022-08-08T16:02:31.362Z,99.90
2022-08-08T16:05:02.037Z,99.90
2022-08-08T16:07:39.504Z,99.90
2022-08-08T16:13:03.532Z,99.90
2022-08-08T16:13:27.877Z,99.90
2022-08-08T16:15:58.147Z,99.90
2022-08-08T16:18:30.650Z,99.90
2022-08-08T16:21:00.430Z,99.90
2022-08-08T16:23:32.255Z,99.90
2022-08-08T16:26:12.859Z,99.90
2022-08-08T16:28:45.685Z,99.90
2022-08-08T16:31:15.469Z,99.90
2022-08-08T16:33:42.334Z,99.90
2022-08-08T16:36:33.978Z,99.90
2022-08-08T16:39:16.627Z,99.90
2022-08-08T16:41:51.011Z,99.90
2022-08-08T16:44:28.065Z,99.90
2022-08-08T16:47:21.986Z,99.90
2022-08-08T16:50:07.722Z,99.90
2022-08-08T16:55:05.726Z,99.90
2022-08-08T16:55:55.988Z,99.90
2022-08-08T16:58:17.744Z,99.90
2022-08-08T17:00:48.941Z,99.90
2022-08-08T17:03:25.042Z,99.90
2022-08-08T17:06:36.523Z,99.90
2022-08-08T17:08:54.172Z,99.90
2022-08-08T17:11:21.126Z,99.90
2022-08-08T17:14:00.993Z,99.90
2022-08-08T17:16:29.107Z,99.90
2022-08-08T17:18:56.768Z,99.90
2022-08-08T17:21:26.035Z,99.90
2022-08-08T17:24:01.348Z,99.90
2022-08-08T17:26:30.396Z,99.90
2022-08-08T17:28:58.832Z,99.90
2022-08-08T17:31:45.494Z,99.90
2022-08-08T17:34:48.704Z,99.90
2022-08-08T17:37:09.089Z,99.90
2022-08-08T17:40:03.534Z,99.90
2022-08-08T17:42:24.958Z,99.90
2022-08-08T17:44:52.591Z,99.90
2022-08-08T17:47:24.315Z,99.90
2022-08-08T17:50:02.791Z,99.90
2022-08-08T17:52:35.107Z,99.90
2022-08-08T17:55:05.502Z,99.90
2022-08-08T17:57:37.396Z,99.90
2022-08-08T18:00:13.184Z,99.90
2022-08-08T18:02:58.102Z,99.90
2022-08-08T18:05:48.888Z,99.90
2022-08-08T18:08:24.868Z,99.90
2022-08-08T18:11:11.614Z,99.90
2022-08-08T18:13:42.721Z,99.90
2022-08-08T18:16:11.053Z,99.90
2022-08-08T18:18:45.242Z,99.90
2022-08-08T18:21:35.243Z,99.90
2022-08-08T18:24:13.623Z,99.90
2022-08-08T18:26:54.845Z,99.90
2022-08-08T18:29:34.054Z,99.90
2022-08-08T18:32:05.298Z,99.90
2022-08-08T18:34:34.705Z,99.90
2022-08-08T18:37:06.573Z,99.90
2022-08-08T18:39:36.927Z,99.90
2022-08-08T18:42:07.351Z,99.90
2022-08-08T18:44:42.051Z,99.90
2022-08-08T18:47:09.052Z,99.90
2022-08-08T18:49:41.121Z,99.90
2022-08-08T18:52:24.183Z,99.90
2022-08-08T18:54:59.550Z,99.90
2022-08-08T18:57:31.530Z,99.90
2022-08-08T19:00:02.952Z,99.90
2022-08-08T19:02:30.249Z,99.90
2022-08-08T19:04:57.133Z,99.90
2022-08-08T19:07:30.047Z,99.90
2022-08-08T19:10:14.411Z,99.90
2022-08-08T19:12:44.711Z,99.90
2022-08-08T19:15:21.765Z,99.90
2022-08-08T19:18:32.371Z,99.90
2022-08-08T19:20:40.544Z,99.90
2022-08-08T19:23:10.675Z,99.90
2022-08-08T19:26:29.568Z,99.90
2022-08-08T19:28:28.112Z,99.90
2022-08-08T19:31:04.048Z,99.90
2022-08-08T19:33:51.804Z,99.90
2022-08-08T19:36:27.571Z,99.90
2022-08-08T19:38:58.317Z,99.90
2022-08-08T19:41:29.559Z,99.90
2022-08-08T19:44:02.725Z,99.90
2022-08-08T19:46:33.466Z,99.90
2022-08-08T19:49:01.714Z,99.90
2022-08-08T19:51:34.140Z,99.90
2022-08-08T19:54:01.878Z,99.90
2022-08-08T19:56:39.983Z,99.90
2022-08-08T19:59:12.845Z,99.90
2022-08-08T20:02:01.692Z,99.90
2022-08-08T20:04:27.866Z,99.90
2022-08-08T20:06:57.779Z,99.90
2022-08-08T20:09:32.257Z,99.90
2022-08-08T20:11:59.432Z,99.90
2022-08-08T20:14:35.483Z,99.90
2022-08-08T20:17:04.475Z,99.90
2022-08-08T20:19:42.259Z,99.90
2022-08-08T20:22:20.613Z,99.90
2022-08-08T20:24:48.565Z,99.90
2022-08-08T20:27:20.531Z,99.90
2022-08-08T20:30:00.756Z,99.90
2022-08-08T20:32:29.659Z,99.90
2022-08-08T20:35:01.056Z,99.90
2022-08-08T20:37:47.022Z,99.90
2022-08-08T20:40:17.227Z,99.90
2022-08-08T20:42:55.013Z,99.90
2022-08-08T20:45:57.944Z,99.90
2022-08-08T20:48:09.687Z,99.90
2022-08-08T20:50:36.867Z,99.90
2022-08-08T20:53:06.762Z,99.90
2022-08-08T20:55:43.081Z,99.90
2022-08-08T20:58:22.900Z,99.90
2022-08-08T21:00:50.559Z,99.90
2022-08-08T21:03:17.618Z,99.90
2022-08-08T21:05:49.199Z,99.90
2022-08-08T21:08:36.979Z,99.90
2022-08-08T21:11:12.487Z,99.90
2022-08-08T21:13:42.787Z,99.90
2022-08-08T21:16:20.657Z,99.90
2022-08-08T21:18:57.407Z,99.90
2022-08-08T21:21:39.804Z,99.90
2022-08-08T21:24:22.405Z,99.90
2022-08-08T21:26:55.570Z,99.90
2022-08-08T21:30:02.846Z,99.90
2022-08-08T21:32:14.343Z,99.90
2022-08-08T21:34:51.701Z,99.90
2022-08-08T21:37:28.761Z,99.90
2022-08-08T21:40:11.444Z,99.90
2022-08-08T21:42:39.657Z,99.90
2022-08-08T21:45:44.650Z,99.90
2022-08-08T21:48:06.283Z,99.90
2022-08-08T21:50:38.126Z,99.90
2022-08-08T21:54:23.305Z,99.90
2022-08-08T21:56:19.953Z,99.90
2022-08-08T21:58:39.172Z,99.90
2022-08-08T22:01:24.421Z,99.90
2022-08-08T22:03:59.125Z,99.90
2022-08-08T22:06:29.477Z,99.90
2022-08-08T22:08:59.122Z,99.90
2022-08-08T22:11:51.399Z,99.90
2022-08-08T22:14:16.862Z,99.90
2022-08-08T22:16:44.523Z,99.90
2022-08-08T22:19:16.267Z,99.90
2022-08-08T22:21:43.449Z,99.90
2022-08-08T22:24:12.731Z,99.90
2022-08-08T22:27:01.249Z,99.90
2022-08-08T22:29:59.192Z,99.90
2022-08-08T22:32:13.326Z,99.90
2022-08-08T22:34:40.378Z,99.90
2022-08-08T22:37:14.891Z,99.90
2022-08-08T22:40:00.750Z,99.90
2022-08-08T22:42:31.680Z,99.90
2022-08-08T22:45:03.455Z,99.90
2022-08-08T22:47:38.436Z,99.90
2022-08-08T22:50:26.193Z,99.90
2022-08-08T22:54:28.439Z,99.90
2022-08-08T22:55:58.481Z,99.90
2022-08-08T22:58:31.113Z,99.90
2022-08-08T23:01:00.544Z,99.90
2022-08-08T23:03:34.377Z,99.90
2022-08-08T23:06:16.415Z,99.90
2022-08-08T23:08:54.247Z,99.90
2022-08-08T23:11:22.290Z,99.90
2022-08-08T23:13:53.547Z,99.90
2022-08-08T23:16:38.538Z,99.90
2022-08-08T23:19:10.335Z,99.90
2022-08-08T23:21:38.733Z,99.90
2022-08-08T23:24:06.887Z,99.90
2022-08-08T23:26:34.241Z,99.90
2022-08-08T23:29:02.079Z,99.90
2022-08-08T23:31:28.990Z,99.90
2022-08-08T23:34:16.697Z,99.90
2022-08-08T23:36:44.895Z,99.90
2022-08-08T23:39:13.284Z,99.90
2022-08-08T23:41:45.742Z,99.90
2022-08-08T23:44:14.536Z,99.90
2022-08-08T23:49:02.529Z,99.90
2022-08-08T23:49:28.780Z,99.90
2022-08-08T23:52:04.382Z,99.90
2022-08-08T23:54:41.270Z,99.90
2022-08-08T23:57:25.095Z,99.90
2022-08-08T23:59:59.076Z,99.90
